Latest Weather Observations for Busselton Jetty

IDW60801

Issued at 2:03 am WST Friday 29 July 2016 (issued every 30 minutes, with the page automatically refreshed every 10 minutes)

About weather observations | Map of weather stations | Latest weather observations for WA | Other Formats
Station Details ID: 009937 Name: BUSSELTON JETTY Lat: -33.63 Lon: 115.34 Height: 3.0 m
Data from the previous 72 hours. | See also: Recent months at Busselton Jetty
Date/Time
WST
Temp
°C
App
Temp
°C
Dew
Point
°C
Rel
Hum
%
Delta-T
°C
Wind Press
QNH
hPa
Press
MSL
hPa
Rain since
9am
mm
Dir  Spd
km/h
Gust
km/h
Spd
kts
Gust
kts
29/02:00am - - - - - ESE 7 9 4 5 - - -
29/01:30am - - - - - SSE 7 9 4 5 - - -
29/01:00am - - - - - SE 7 11 4 6 - - -
29/12:30am - - - - - ESE 9 11 5 6 - - -
29/12:00am - - - - - ESE 11 13 6 7 - - -
 
Date/Time
WST
Temp
°C
App
Temp
°C
Dew
Point
°C
Rel
Hum
%
Delta-T
°C
Wind Press
QNH
hPa
Press
MSL
hPa
Rain since
9am
mm
Dir  Spd
km/h
Gust
km/h
Spd
kts
Gust
kts
28/11:30pm - - - - - E 9 11 5 6 - - -
28/11:00pm - - - - - SE 11 13 6 7 - - -
28/10:30pm - - - - - SSE 9 11 5 6 - - -
28/10:00pm - - - - - E 15 15 8 8 - - -
28/09:30pm - - - - - E 15 17 8 9 - - -
28/09:00pm - - - - - E 13 15 7 8 - - -
28/08:30pm - - - - - SE 13 15 7 8 - - -
28/08:00pm - - - - - SE 13 15 7 8 - - -
28/07:30pm - - - - - SSE 15 15 8 8 - - -
28/07:00pm - - - - - SSE 17 20 9 11 - - -
28/06:30pm - - - - - SSE 6 7 3 4 - - -
28/06:00pm - - - - - NNE 9 11 5 6 - - -
28/05:30pm - - - - - NE 9 11 5 6 - - -
28/05:00pm - - - - - NNE 7 9 4 5 - - -
28/04:30pm - - - - - ENE 9 9 5 5 - - -
28/04:00pm - - - - - ENE 13 15 7 8 - - -
28/03:30pm - - - - - NE 13 15 7 8 - - -
28/03:00pm - - - - - NE 11 15 6 8 - - -
28/02:30pm - - - - - NNE 13 15 7 8 - - -
28/02:00pm - - - - - NNE 13 17 7 9 - - -
28/01:30pm - - - - - NE 15 15 8 8 - - -
28/01:00pm - - - - - NE 11 13 6 7 - - -
28/12:30pm - - - - - NE 13 15 7 8 - - -
28/12:00pm - - - - - NE 13 15 7 8 - - -
28/11:30am - - - - - NE 17 19 9 10 - - -
28/11:00am - - - - - NE 13 15 7 8 - - -
28/10:30am - - - - - ENE 13 15 7 8 - - -
28/10:00am - - - - - E 11 13 6 7 - - -
28/09:30am - - - - - E 13 15 7 8 - - -
28/09:00am - - - - - ESE 11 13 6 7 - - -
28/08:30am - - - - - SE 11 13 6 7 - - -
28/08:00am - - - - - ESE 11 13 6 7 - - -
28/07:30am - - - - - ESE 11 13 6 7 - - -
28/07:00am - - - - - ESE 11 11 6 6 - - -
28/06:30am - - - - - ESE 11 13 6 7 - - -
28/06:00am - - - - - SE 13 15 7 8 - - -
28/05:30am - - - - - SSE 13 15 7 8 - - -
28/05:00am - - - - - S 11 11 6 6 - - -
28/04:30am - - - - - ESE 11 17 6 9 - - -
28/04:00am - - - - - NE 17 19 9 10 - - -
28/03:30am - - - - - ENE 17 19 9 10 - - -
28/03:00am - - - - - ENE 13 15 7 8 - - -
28/02:30am - - - - - ENE 13 17 7 9 - - -
28/02:00am - - - - - ENE 13 15 7 8 - - -
28/01:30am - - - - - E 15 17 8 9 - - -
28/01:00am - - - - - E 11 13 6 7 - - -
28/12:30am - - - - - E 13 15 7 8 - - -
28/12:00am - - - - - E 15 17 8 9 - - -
 
Date/Time
WST
Temp
°C
App
Temp
°C
Dew
Point
°C
Rel
Hum
%
Delta-T
°C
Wind Press
QNH
hPa
Press
MSL
hPa
Rain since
9am
mm
Dir  Spd
km/h
Gust
km/h
Spd
kts
Gust
kts
27/11:30pm - - - - - E 17 19 9 10 - - -
27/11:00pm - - - - - E 15 17 8 9 - - -
27/10:30pm - - - - - E 15 17 8 9 - - -
27/10:00pm - - - - - ESE 13 17 7 9 - - -
27/09:30pm - - - - - ESE 15 17 8 9 - - -
27/09:00pm - - - - - SE 11 11 6 6 - - -
27/08:30pm - - - - - E 11 15 6 8 - - -
27/08:00pm - - - - - ESE 13 13 7 7 - - -
27/07:30pm - - - - - SE 11 13 6 7 - - -
27/07:00pm - - - - - ESE 9 11 5 6 - - -
27/06:30pm - - - - - ESE 7 9 4 5 - - -
27/06:00pm - - - - - ENE 7 9 4 5 - - -
27/05:30pm - - - - - ENE 6 7 3 4 - - -
27/05:00pm - - - - - NNE 7 9 4 5 - - -
27/04:30pm - - - - - NE 9 9 5 5 - - -
27/04:00pm - - - - - NE 9 13 5 7 - - -
27/03:30pm - - - - - NE 13 15 7 8 - - -
27/03:00pm - - - - - NE 13 13 7 7 - - -
27/02:30pm - - - - - NE 13 13 7 7 - - -
27/02:00pm - - - - - NE 13 13 7 7 - - -
27/01:30pm - - - - - NE 13 13 7 7 - - -
27/01:00pm - - - - - NE 9 11 5 6 - - -
27/12:30pm - - - - - NE 9 11 5 6 - - -
27/12:00pm - - - - - NE 11 13 6 7 - - -
27/11:30am - - - - - NE 13 15 7 8 - - -
27/11:00am - - - - - NE 13 15 7 8 - - -
27/10:30am - - - - - ENE 13 15 7 8 - - -
27/10:00am - - - - - ENE 15 15 8 8 - - -
27/09:30am - - - - - ENE 13 15 7 8 - - -
27/09:00am - - - - - E 17 19 9 10 - - -
27/08:30am - - - - - E 19 20 10 11 - - -
27/08:00am - - - - - E 19 20 10 11 - - -
27/07:30am - - - - - E 15 19 8 10 - - -
27/07:00am - - - - - ESE 13 17 7 9 - - -
27/06:30am - - - - - ESE 11 13 6 7 - - -
27/06:00am - - - - - SE 7 9 4 5 - - -
27/05:30am - - - - - SE 7 7 4 4 - - -
27/05:00am - - - - - SE 7 9 4 5 - - -
27/04:30am - - - - - SE 9 11 5 6 - - -
27/04:00am - - - - - SE 11 13 6 7 - - -
27/03:30am - - - - - ESE 13 15 7 8 - - -
27/03:00am - - - - - ESE 9 11 5 6 - - -
27/02:30am - - - - - ESE 9 13 5 7 - - -
27/02:00am - - - - - ESE 9 11 5 6 - - -
27/01:30am - - - - - ESE 9 9 5 5 - - -
27/01:00am - - - - - ESE 7 7 4 4 - - -
27/12:30am - - - - - ESE 9 13 5 7 - - -
27/12:00am - - - - - SE 11 13 6 7 - - -
 
Date/Time
WST
Temp
°C
App
Temp
°C
Dew
Point
°C
Rel
Hum
%
Delta-T
°C
Wind Press
QNH
hPa
Press
MSL
hPa
Rain since
9am
mm
Dir  Spd
km/h
Gust
km/h
Spd
kts
Gust
kts
26/11:30pm - - - - - SE 13 13 7 7 - - -
26/11:00pm - - - - - SSE 15 17 8 9 - - -
26/10:30pm - - - - - SE 13 15 7 8 - - -
26/10:00pm - - - - - S 13 17 7 9 - - -
26/09:30pm - - - - - SW 13 17 7 9 - - -
26/09:00pm - - - - - SW 13 17 7 9 - - -
26/08:30pm - - - - - SW 13 17 7 9 - - -
26/08:00pm - - - - - SSW 17 19 9 10 - - -
26/07:30pm - - - - - SW 20 24 11 13 - - -
26/07:00pm - - - - - WSW 11 13 6 7 - - -
26/06:30pm - - - - - WSW 17 19 9 10 - - -
26/06:00pm - - - - - WSW 19 22 10 12 - - -
26/05:30pm - - - - - WSW 17 19 9 10 - - -
26/05:00pm - - - - - WSW 17 20 9 11 - - -
26/04:30pm - - - - - SW 17 19 9 10 - - -
26/04:00pm - - - - - SW 20 26 11 14 - - -
26/03:30pm - - - - - WNW 11 15 6 8 - - -
26/03:00pm - - - - - NNW 13 13 7 7 - - -
26/02:30pm - - - - - NNW 15 17 8 9 - - -
26/02:00pm - - - - - NW 13 17 7 9 - - -
26/01:30pm - - - - - NNW 15 15 8 8 - - -
26/01:00pm - - - - - NNW 15 17 8 9 - - -
26/12:30pm - - - - - NNW 15 17 8 9 - - -
26/12:00pm - - - - - N 11 13 6 7 - - -
26/11:30am - - - - - N 9 9 5 5 - - -
26/11:00am - - - - - N 9 9 5 5 - - -
26/10:30am - - - - - NE 7 9 4 5 - - -
26/10:00am - - - - - ENE 6 7 3 4 - - -
26/09:30am - - - - - ESE 7 9 4 5 - - -
26/09:00am - - - - - E 9 11 5 6 - - -
26/08:30am - - - - - E 9 9 5 5 - - -
26/08:00am - - - - - ESE 9 13 5 7 - - -
26/07:30am - - - - - SE 7 9 4 5 - - -
26/07:00am - - - - - E 6 7 3 4 - - -
26/06:30am - - - - - ESE 7 11 4 6 - - -
26/06:00am - - - - - SE 9 11 5 6 - - -
26/05:30am - - - - - CALM 0 0 0 0 - - -
26/05:00am - - - - - E 6 7 3 4 - - -
26/04:30am - - - - - SE 4 6 2 3 - - -
26/04:00am - - - - - ESE 7 7 4 4 - - -
26/03:30am - - - - - CALM 0 0 0 0 - - -
26/03:00am - - - - - CALM 0 0 0 0 - - -
26/02:30am - - - - - SE 7 9 4 5 - - -

Other Formats:

Comma delimited format used in spreadsheet applications
http://www.bom.gov.au/fwo/IDW60801/IDW60801.95602.axf

JavaScript Object Notation format (JSON) in row-major order
http://www.bom.gov.au/fwo/IDW60801/IDW60801.95602.json